createdAt,value
2018-01-11T00:00:07.691Z,17.67
2018-01-11T00:02:35.822Z,17.37
2018-01-11T00:05:04.554Z,18.13
2018-01-11T00:07:32.338Z,19.73
2018-01-11T00:10:00.242Z,18.77
2018-01-11T00:12:28.692Z,18.60
2018-01-11T00:14:56.244Z,18.40
2018-01-11T00:17:24.692Z,17.70
2018-01-11T00:19:52.262Z,17.73
2018-01-11T00:22:19.846Z,17.80
2018-01-11T00:24:47.395Z,16.67
2018-01-11T00:27:15.582Z,16.97
2018-01-11T00:29:43.159Z,18.30
2018-01-11T00:32:10.766Z,16.73
2018-01-11T00:34:38.338Z,16.73
2018-01-11T00:37:06.394Z,16.70
2018-01-11T00:39:35.191Z,17.20
2018-01-11T00:42:02.788Z,17.10
2018-01-11T00:44:30.533Z,17.40
2018-01-11T00:46:58.719Z,17.27
2018-01-11T00:49:27.818Z,18.53
2018-01-11T00:51:55.376Z,18.60
2018-01-11T00:54:22.987Z,16.13
2018-01-11T00:56:51.859Z,17.30
2018-01-11T00:59:20.194Z,16.97
2018-01-11T01:01:47.790Z,18.23
2018-01-11T01:04:16.149Z,17.73
2018-01-11T01:06:47.281Z,16.53
2018-01-11T01:09:14.862Z,17.23
2018-01-11T01:11:42.405Z,16.17
2018-01-11T01:14:10.094Z,16.70
2018-01-11T01:16:38.511Z,18.70
2018-01-11T01:19:07.071Z,17.63
2018-01-11T01:21:34.668Z,17.77
2018-01-11T01:24:02.236Z,19.17
2018-01-11T01:26:29.815Z,18.57
2018-01-11T01:28:57.436Z,17.90
2018-01-11T01:31:25.650Z,18.33
2018-01-11T01:33:53.342Z,19.00
2018-01-11T01:36:21.359Z,19.87
2018-01-11T01:38:48.917Z,18.90
2018-01-11T01:41:17.182Z,19.40
2018-01-11T01:43:44.748Z,19.40
2018-01-11T01:46:13.187Z,18.97
2018-01-11T01:48:43.389Z,18.60
2018-01-11T01:51:10.954Z,18.30
2018-01-11T01:53:38.510Z,18.03
2018-01-11T01:56:06.062Z,20.10
2018-01-11T01:58:33.659Z,20.00
2018-01-11T02:01:02.644Z,19.83
2018-01-11T02:03:30.218Z,17.60
2018-01-11T02:05:57.820Z,20.00
2018-01-11T02:08:25.440Z,19.57
2018-01-11T02:10:52.971Z,17.67
2018-01-11T02:13:20.544Z,17.73
2018-01-11T02:15:48.892Z,16.40
2018-01-11T02:18:16.453Z,18.37
2018-01-11T02:20:44.785Z,16.53
2018-01-11T02:23:12.358Z,17.40
2018-01-11T02:25:39.920Z,17.33
2018-01-11T02:28:07.574Z,17.40
2018-01-11T02:30:35.097Z,15.80
2018-01-11T02:33:02.694Z,15.27
2018-01-11T02:35:30.276Z,15.00
2018-01-11T02:37:57.795Z,15.37
2018-01-11T02:40:25.324Z,15.57
2018-01-11T02:42:52.904Z,14.00
2018-01-11T02:45:20.459Z,13.80
2018-01-11T02:47:48.004Z,15.10
2018-01-11T02:50:15.580Z,13.97
2018-01-11T02:52:43.878Z,14.93
2018-01-11T02:55:11.451Z,14.33
2018-01-11T02:57:39.073Z,14.00
2018-01-11T03:00:06.701Z,15.30
2018-01-11T03:02:34.282Z,14.50
2018-01-11T03:05:01.946Z,14.30
2018-01-11T03:07:30.356Z,14.00
2018-01-11T03:09:57.906Z,14.67
2018-01-11T03:12:26.335Z,14.77
2018-01-11T03:14:53.919Z,15.80
2018-01-11T03:17:21.449Z,14.23
2018-01-11T03:19:49.027Z,14.50
2018-01-11T03:22:16.576Z,14.00
2018-01-11T03:24:44.319Z,15.20
2018-01-11T03:27:11.917Z,14.47
2018-01-11T03:29:39.533Z,14.70
2018-01-11T03:32:07.063Z,14.87
2018-01-11T03:34:34.642Z,15.00
2018-01-11T03:37:02.161Z,15.30
2018-01-11T03:39:29.785Z,15.20
2018-01-11T03:41:57.328Z,14.80
2018-01-11T03:44:24.846Z,15.33
2018-01-11T03:46:52.472Z,16.23
2018-01-11T03:49:20.017Z,16.20
2018-01-11T03:51:47.586Z,16.10
2018-01-11T03:54:15.194Z,17.13
2018-01-11T03:56:43.502Z,16.37
2018-01-11T03:59:11.488Z,17.23
2018-01-11T04:01:39.041Z,16.53
2018-01-11T04:04:07.454Z,17.13
2018-01-11T04:06:35.007Z,19.00
2018-01-11T04:09:03.442Z,16.93
2018-01-11T04:11:31.809Z,17.23
2018-01-11T04:14:00.121Z,18.00
2018-01-11T04:16:27.702Z,18.17
2018-01-11T04:18:55.293Z,16.60
2018-01-11T04:21:23.626Z,17.33
2018-01-11T04:23:51.203Z,17.10
2018-01-11T04:26:18.811Z,16.10
2018-01-11T04:28:47.107Z,15.97
2018-01-11T04:31:14.678Z,17.73
2018-01-11T04:33:42.241Z,15.97
2018-01-11T04:36:09.833Z,16.30
2018-01-11T04:38:37.392Z,16.57
2018-01-11T04:41:04.918Z,13.40
2018-01-11T04:43:32.491Z,15.40
2018-01-11T04:46:00.067Z,16.23
2018-01-11T04:48:27.599Z,15.33
2018-01-11T04:50:55.150Z,16.20
2018-01-11T04:53:22.753Z,14.80
2018-01-11T04:55:50.345Z,16.00
2018-01-11T04:58:17.920Z,15.00
2018-01-11T05:00:51.192Z,16.40
2018-01-11T05:03:19.506Z,15.60
2018-01-11T05:05:47.174Z,15.30
2018-01-11T05:08:14.747Z,16.00
2018-01-11T05:10:42.387Z,15.13
2018-01-11T05:13:09.956Z,16.63
2018-01-11T05:15:37.527Z,15.53
2018-01-11T05:18:05.122Z,15.30
2018-01-11T05:20:32.646Z,17.17
2018-01-11T05:23:00.222Z,16.40
2018-01-11T05:25:28.565Z,16.80
2018-01-11T05:27:56.165Z,14.03
2018-01-11T05:30:23.711Z,17.20
2018-01-11T05:32:51.282Z,15.70
2018-01-11T05:35:18.871Z,16.90
2018-01-11T05:37:46.441Z,15.00
2018-01-11T05:40:14.034Z,15.70
2018-01-11T05:42:41.638Z,15.50
2018-01-11T05:45:09.775Z,15.77
2018-01-11T05:47:37.371Z,15.03
2018-01-11T05:50:05.641Z,15.33
2018-01-11T05:52:33.242Z,14.73
2018-01-11T05:55:00.810Z,14.43
2018-01-11T05:57:28.386Z,14.07
2018-01-11T05:59:56.064Z,14.63
2018-01-11T06:02:23.642Z,14.30
2018-01-11T06:04:51.249Z,14.00
2018-01-11T06:07:18.782Z,14.80
2018-01-11T06:09:46.417Z,12.50
2018-01-11T06:12:13.965Z,12.73
2018-01-11T06:14:41.613Z,14.23
2018-01-11T06:17:09.435Z,13.63
2018-01-11T06:19:37.163Z,13.70
2018-01-11T06:22:04.728Z,14.97
2018-01-11T06:24:32.344Z,14.73
2018-01-11T06:27:00.844Z,14.27
2018-01-11T06:29:28.429Z,16.17
2018-01-11T06:31:56.056Z,14.40
2018-01-11T06:34:23.603Z,13.83
2018-01-11T06:36:51.173Z,14.17
2018-01-11T06:39:18.925Z,13.50
2018-01-11T06:41:46.561Z,14.50
2018-01-11T06:44:16.167Z,14.10
2018-01-11T06:46:45.682Z,14.90
2018-01-11T06:58:53.319Z,15.33
2018-01-11T07:01:21.773Z,17.10
2018-01-11T07:03:49.352Z,14.37
2018-01-11T07:06:17.702Z,16.23
2018-01-11T07:08:45.293Z,15.97
2018-01-11T07:11:12.884Z,15.50
2018-01-11T07:13:40.499Z,16.23
2018-01-11T07:16:08.094Z,14.80
2018-01-11T07:18:35.727Z,16.80
2018-01-11T07:21:03.313Z,15.33
2018-01-11T07:23:32.361Z,16.33
2018-01-11T07:25:59.964Z,17.40
2018-01-11T07:28:27.524Z,17.03
2018-01-11T07:30:55.127Z,17.33
2018-01-11T07:33:23.386Z,17.40
2018-01-11T07:35:52.058Z,17.77
2018-01-11T07:38:20.591Z,17.73
2018-01-11T07:40:48.199Z,16.87
2018-01-11T07:43:15.946Z,17.03
2018-01-11T07:45:43.519Z,17.13
2018-01-11T07:48:11.090Z,16.47
2018-01-11T07:50:39.813Z,17.37
2018-01-11T07:53:07.428Z,16.63
2018-01-11T07:55:35.004Z,16.57
2018-01-11T07:58:02.576Z,15.87
2018-01-11T08:00:30.153Z,15.60
2018-01-11T08:02:57.707Z,16.67
2018-01-11T08:05:26.211Z,15.33
2018-01-11T08:07:53.795Z,17.00
2018-01-11T08:10:21.351Z,16.03
2018-01-11T08:12:48.885Z,15.07
2018-01-11T08:15:16.498Z,15.53
2018-01-11T08:17:44.090Z,15.60
2018-01-11T08:20:11.679Z,15.20
2018-01-11T08:22:39.188Z,14.90
2018-01-11T08:25:07.529Z,15.73
2018-01-11T08:27:35.078Z,14.93
2018-01-11T08:30:02.755Z,16.00
2018-01-11T08:32:30.334Z,15.43
2018-01-11T08:34:57.891Z,14.73
2018-01-11T08:37:25.475Z,15.07
2018-01-11T08:39:53.824Z,13.70
2018-01-11T08:42:21.370Z,15.67
2018-01-11T08:44:49.827Z,16.33
2018-01-11T08:47:17.423Z,15.13
2018-01-11T08:49:45.413Z,14.43
2018-01-11T08:52:12.987Z,15.70
2018-01-11T08:54:40.530Z,15.37
2018-01-11T08:57:08.975Z,16.37
2018-01-11T08:59:36.495Z,14.63
2018-01-11T09:02:04.069Z,15.77
2018-01-11T09:04:31.658Z,15.27
2018-01-11T09:06:59.184Z,14.80
2018-01-11T09:09:26.776Z,14.73
2018-01-11T09:11:54.369Z,14.80
2018-01-11T09:14:21.922Z,16.00
2018-01-11T09:16:50.248Z,18.03
2018-01-11T09:19:17.859Z,18.50
2018-01-11T09:21:46.187Z,19.83
2018-01-11T09:24:14.704Z,20.73
2018-01-11T09:26:43.130Z,20.80
2018-01-11T09:29:10.673Z,20.83
2018-01-11T09:31:38.989Z,19.03
2018-01-11T09:34:07.597Z,20.43
2018-01-11T09:36:35.173Z,20.90
2018-01-11T09:39:02.784Z,21.20
2018-01-11T09:41:30.360Z,21.27
2018-01-11T09:43:58.130Z,20.03
2018-01-11T09:46:25.708Z,21.10
2018-01-11T09:48:53.295Z,20.33
2018-01-11T09:51:21.678Z,21.00
2018-01-11T09:53:50.014Z,22.60
2018-01-11T09:56:17.589Z,22.30
2018-01-11T09:58:45.214Z,23.30
2018-01-11T10:01:12.764Z,21.97
2018-01-11T10:03:40.307Z,20.80
2018-01-11T10:06:07.932Z,20.87
2018-01-11T10:08:37.450Z,22.03
2018-01-11T10:11:05.010Z,18.60
2018-01-11T10:13:32.554Z,12.90
2018-01-11T10:16:00.080Z,13.13
2018-01-11T10:18:27.680Z,12.70
2018-01-11T10:20:55.448Z,11.23
2018-01-11T10:23:23.021Z,10.03
2018-01-11T10:25:50.601Z,10.80
2018-01-11T10:28:18.258Z,11.10
2018-01-11T10:30:46.486Z,11.63
2018-01-11T10:33:14.046Z,11.20
2018-01-11T10:35:41.615Z,12.20
2018-01-11T10:38:09.335Z,10.80
2018-01-11T10:40:36.865Z,10.33
2018-01-11T10:43:04.478Z,12.83
2018-01-11T10:45:32.050Z,11.50
2018-01-11T10:47:59.631Z,13.10
2018-01-11T10:50:27.169Z,12.80
2018-01-11T10:52:55.484Z,12.80
2018-01-11T10:55:23.909Z,12.90
2018-01-11T10:57:51.470Z,12.17
2018-01-11T11:00:19.042Z,17.40
2018-01-11T11:02:49.418Z,17.50
2018-01-11T11:05:16.950Z,13.17
2018-01-11T11:07:44.529Z,12.23
2018-01-11T11:10:12.870Z,12.70
2018-01-11T11:12:40.430Z,12.10
2018-01-11T11:15:08.072Z,12.73
2018-01-11T11:17:35.637Z,13.30
2018-01-11T11:20:04.604Z,12.93
2018-01-11T11:22:32.144Z,12.60
2018-01-11T11:25:00.512Z,13.57
2018-01-11T11:27:28.055Z,11.67
2018-01-11T11:29:55.589Z,11.50
2018-01-11T11:32:23.171Z,12.53
2018-01-11T11:34:50.718Z,11.57
2018-01-11T11:37:18.296Z,12.87
2018-01-11T11:39:45.887Z,11.10
2018-01-11T11:42:13.592Z,12.27
2018-01-11T11:44:41.172Z,12.13
2018-01-11T11:47:10.027Z,12.93
2018-01-11T11:49:37.659Z,12.80
2018-01-11T11:52:05.269Z,13.77
2018-01-11T11:54:32.828Z,15.43
2018-01-11T11:57:00.397Z,14.57
2018-01-11T11:59:27.977Z,15.47
2018-01-11T12:01:56.222Z,16.23
2018-01-11T12:06:57.711Z,15.77
2018-01-11T12:09:26.175Z,16.43
2018-01-11T12:11:53.722Z,16.63
2018-01-11T12:14:21.300Z,17.20
2018-01-11T12:16:49.357Z,15.87
2018-01-11T12:19:16.889Z,15.87
2018-01-11T12:21:45.252Z,16.50
2018-01-11T12:24:12.834Z,15.73
2018-01-11T12:26:41.107Z,16.60
2018-01-11T12:29:08.685Z,15.90
2018-01-11T12:31:36.239Z,15.47
2018-01-11T12:34:03.784Z,16.20
2018-01-11T12:36:31.381Z,16.67
2018-01-11T12:38:58.926Z,16.83
2018-01-11T12:41:27.404Z,18.37
2018-01-11T12:43:54.994Z,17.33
2018-01-11T12:46:22.570Z,17.60
2018-01-11T12:48:50.102Z,17.70
2018-01-11T12:51:17.620Z,17.87
2018-01-11T12:53:45.186Z,15.80
2018-01-11T12:56:12.761Z,17.53
2018-01-11T12:58:40.338Z,16.80
2018-01-11T13:01:07.967Z,17.93
2018-01-11T13:03:36.354Z,18.27
2018-01-11T13:06:04.695Z,16.90
2018-01-11T13:08:32.293Z,17.10
2018-01-11T13:11:00.702Z,18.33
2018-01-11T13:13:28.308Z,18.20
2018-01-11T13:15:56.805Z,17.43
2018-01-11T13:18:24.401Z,17.47
2018-01-11T13:20:51.928Z,17.50
2018-01-11T13:23:19.488Z,17.63
2018-01-11T13:25:47.817Z,19.10
2018-01-11T13:28:15.488Z,19.73
2018-01-11T13:30:43.056Z,18.50
2018-01-11T13:33:10.599Z,17.30
2018-01-11T13:35:38.175Z,18.60
2018-01-11T13:38:05.745Z,18.53
2018-01-11T13:40:33.280Z,19.43
2018-01-11T13:43:01.696Z,19.43
2018-01-11T13:45:30.000Z,18.63
2018-01-11T13:47:57.669Z,20.00
2018-01-11T13:50:25.193Z,18.70
2018-01-11T13:52:53.591Z,17.93
2018-01-11T13:55:21.867Z,17.17
2018-01-11T13:57:50.332Z,17.93
2018-01-11T14:00:17.921Z,18.70
2018-01-11T14:02:45.459Z,19.13
2018-01-11T14:05:13.813Z,18.77
2018-01-11T14:07:41.352Z,18.00
2018-01-11T14:10:09.634Z,19.83
2018-01-11T14:12:37.314Z,22.40
2018-01-11T14:15:05.769Z,19.00
2018-01-11T14:17:33.384Z,19.30
2018-01-11T14:20:01.764Z,20.53
2018-01-11T14:22:29.332Z,19.73
2018-01-11T14:24:57.739Z,19.30
2018-01-11T14:27:25.415Z,20.63
2018-01-11T14:29:52.990Z,19.60
2018-01-11T14:32:20.581Z,19.23
2018-01-11T14:34:49.852Z,19.10
2018-01-11T14:37:17.457Z,19.13
2018-01-11T14:39:45.559Z,19.93
2018-01-11T14:42:14.097Z,20.20
2018-01-11T14:44:42.428Z,18.77
2018-01-11T14:47:10.009Z,19.70
2018-01-11T14:49:37.670Z,20.40
2018-01-11T14:52:05.353Z,22.50
2018-01-11T14:54:33.736Z,21.53
2018-01-11T14:57:01.340Z,22.27
2018-01-11T14:59:29.063Z,23.67
2018-01-11T15:01:58.324Z,22.90
2018-01-11T15:04:25.963Z,22.43
2018-01-11T15:06:53.593Z,22.90
2018-01-11T15:09:22.691Z,23.77
2018-01-11T15:11:51.108Z,24.73
2018-01-11T15:14:18.683Z,24.50
2018-01-11T15:16:46.342Z,26.77
2018-01-11T15:19:13.903Z,26.13
2018-01-11T15:21:41.479Z,27.80
2018-01-11T15:24:09.098Z,26.97
2018-01-11T15:26:36.645Z,25.80
2018-01-11T15:29:05.126Z,27.90
2018-01-11T15:31:32.716Z,27.03
2018-01-11T15:34:00.318Z,28.00
2018-01-11T15:36:27.903Z,29.07
2018-01-11T15:38:55.554Z,30.27
2018-01-11T15:41:23.911Z,29.90
2018-01-11T15:43:51.532Z,29.90
2018-01-11T15:46:19.156Z,26.33
2018-01-11T15:48:46.774Z,29.47
2018-01-11T15:51:14.521Z,28.93
2018-01-11T15:53:42.096Z,30.90
2018-01-11T15:56:09.730Z,32.50
2018-01-11T15:58:38.821Z,28.80
2018-01-11T16:01:06.448Z,29.43
2018-01-11T16:03:35.199Z,31.67
2018-01-11T16:06:02.760Z,30.93
2018-01-11T16:08:30.973Z,25.10
2018-01-11T16:11:00.146Z,28.17
2018-01-11T16:13:27.742Z,26.57
2018-01-11T16:15:56.151Z,23.17
2018-01-11T16:18:23.717Z,25.40
2018-01-11T16:20:51.319Z,24.43
2018-01-11T16:23:18.884Z,23.57
2018-01-11T16:25:46.555Z,24.17
2018-01-11T16:28:14.921Z,25.93
2018-01-11T16:30:42.499Z,27.60
2018-01-11T16:33:10.838Z,27.00
2018-01-11T16:35:39.430Z,27.27
2018-01-11T16:38:07.785Z,25.37
2018-01-11T16:40:35.379Z,26.10
2018-01-11T16:43:03.028Z,26.57
2018-01-11T16:45:31.492Z,25.30
2018-01-11T16:47:59.097Z,27.60
2018-01-11T16:50:26.726Z,26.20
2018-01-11T16:52:54.471Z,26.03
2018-01-11T16:55:21.994Z,28.20
2018-01-11T16:57:49.601Z,25.50
2018-01-11T17:00:18.225Z,25.43
2018-01-11T17:02:46.566Z,24.13
2018-01-11T17:05:14.188Z,23.70
2018-01-11T17:07:41.743Z,19.77
2018-01-11T17:10:10.107Z,19.40
2018-01-11T17:12:38.597Z,20.90
2018-01-11T17:15:08.852Z,22.57
2018-01-11T17:17:36.432Z,22.90
2018-01-11T17:20:06.096Z,22.27
2018-01-11T17:22:34.537Z,21.70
2018-01-11T17:25:02.143Z,20.70
2018-01-11T17:27:31.379Z,21.03
2018-01-11T17:29:59.603Z,21.80
2018-01-11T17:32:27.941Z,21.80
2018-01-11T17:34:55.472Z,21.30
2018-01-11T17:37:23.108Z,22.40
2018-01-11T17:39:50.768Z,21.53
2018-01-11T17:42:18.426Z,22.97
2018-01-11T17:44:47.050Z,22.53
2018-01-11T17:47:15.419Z,21.53
2018-01-11T17:49:42.972Z,19.73
2018-01-11T17:52:10.588Z,19.77
2018-01-11T17:54:38.806Z,17.30
2018-01-11T17:57:06.353Z,17.50
2018-01-11T17:59:34.435Z,19.07
2018-01-11T18:02:02.057Z,20.50
2018-01-11T18:04:30.290Z,17.30
2018-01-11T18:06:58.375Z,18.00
2018-01-11T18:09:26.034Z,19.43
2018-01-11T18:11:53.610Z,21.40
2018-01-11T18:14:21.193Z,22.73
2018-01-11T18:16:49.545Z,22.00
2018-01-11T18:19:17.173Z,20.73
2018-01-11T18:21:46.115Z,21.27
2018-01-11T18:24:13.687Z,22.90
2018-01-11T18:26:41.267Z,20.67
2018-01-11T18:29:11.070Z,19.10
2018-01-11T18:31:38.622Z,19.60
2018-01-11T18:34:06.803Z,18.67
2018-01-11T18:36:34.368Z,20.10
2018-01-11T18:39:02.804Z,18.13
2018-01-11T18:41:31.215Z,17.80
2018-01-11T18:43:59.599Z,17.80
2018-01-11T18:46:27.246Z,17.20
2018-01-11T18:48:54.805Z,18.97
2018-01-11T18:51:22.376Z,17.20
2018-01-11T18:53:50.745Z,16.80
2018-01-11T18:56:19.150Z,20.30
2018-01-11T18:58:47.494Z,21.90
2018-01-11T19:01:15.070Z,21.63
2018-01-11T19:03:42.644Z,20.50
2018-01-11T19:06:11.006Z,19.87
2018-01-11T19:08:38.633Z,20.10
2018-01-11T19:11:06.191Z,20.20
2018-01-11T19:13:33.792Z,20.30
2018-01-11T19:16:02.181Z,20.27
2018-01-11T19:18:30.530Z,21.33
2018-01-11T19:20:58.110Z,21.23
2018-01-11T19:23:25.675Z,21.30
2018-01-11T19:25:53.227Z,21.60
2018-01-11T19:28:20.821Z,20.83
2018-01-11T19:30:48.410Z,21.30
2018-01-11T19:33:16.045Z,17.40
2018-01-11T19:35:43.605Z,18.73
2018-01-11T19:38:11.161Z,17.53
2018-01-11T19:40:38.787Z,17.53
2018-01-11T19:43:06.374Z,18.90
2018-01-11T19:45:33.987Z,17.40
2018-01-11T19:48:01.664Z,18.73
2018-01-11T19:50:29.189Z,17.80
2018-01-11T19:52:56.744Z,17.63
2018-01-11T19:55:24.348Z,16.27
2018-01-11T19:57:51.982Z,17.57
2018-01-11T20:00:19.635Z,17.50
2018-01-11T20:02:47.163Z,18.00
2018-01-11T20:05:15.427Z,18.13
2018-01-11T20:07:43.774Z,18.00
2018-01-11T20:10:11.330Z,19.47
2018-01-11T20:12:38.986Z,18.10
2018-01-11T20:15:08.606Z,19.43
2018-01-11T20:17:36.170Z,16.40
2018-01-11T20:20:03.943Z,18.70
2018-01-11T20:22:31.515Z,18.30
2018-01-11T20:24:59.125Z,17.63
2018-01-11T20:27:26.712Z,16.20
2018-01-11T20:29:54.352Z,16.60
2018-01-11T20:32:23.106Z,14.00
2018-01-11T20:34:51.660Z,15.40
2018-01-11T20:37:19.233Z,15.10
2018-01-11T20:39:47.572Z,15.40
2018-01-11T20:42:15.740Z,15.40
2018-01-11T20:44:43.300Z,14.30
2018-01-11T20:47:10.930Z,14.67
2018-01-11T20:49:38.528Z,13.10
2018-01-11T20:52:06.072Z,14.63
2018-01-11T20:54:33.655Z,15.10
2018-01-11T20:57:01.223Z,14.23
2018-01-11T20:59:28.801Z,15.30
2018-01-11T21:01:56.438Z,17.00
2018-01-11T21:04:23.995Z,17.37
2018-01-11T21:06:51.571Z,17.97
2018-01-11T21:09:19.091Z,15.97
2018-01-11T21:11:46.645Z,16.43
2018-01-11T21:14:14.189Z,17.30
2018-01-11T21:16:41.767Z,16.60
2018-01-11T21:19:09.592Z,18.60
2018-01-11T21:21:37.145Z,18.97
2018-01-11T21:24:04.715Z,20.27
2018-01-11T21:26:33.100Z,19.50
2018-01-11T21:29:01.111Z,21.07
2018-01-11T21:31:28.676Z,19.83
2018-01-11T21:33:57.052Z,21.27
2018-01-11T21:36:24.618Z,24.57
2018-01-11T21:38:52.470Z,24.27
2018-01-11T21:41:20.059Z,22.27
2018-01-11T21:43:47.632Z,24.33
2018-01-11T21:46:15.215Z,24.53
2018-01-11T21:48:42.868Z,24.00
2018-01-11T21:51:10.452Z,25.37
2018-01-11T21:53:37.988Z,24.03
2018-01-11T21:56:05.580Z,21.97
2018-01-11T21:58:33.151Z,23.30
2018-01-11T22:01:00.711Z,22.93
2018-01-11T22:03:28.420Z,23.90
2018-01-11T22:05:56.058Z,22.10
2018-01-11T22:08:25.211Z,21.67
2018-01-11T22:10:54.185Z,25.50
2018-01-11T22:13:22.555Z,22.63
2018-01-11T22:15:50.154Z,23.80
2018-01-11T22:18:17.743Z,23.30
2018-01-11T22:20:45.298Z,22.27
2018-01-11T22:23:13.766Z,23.83
2018-01-11T22:25:41.324Z,24.43
2018-01-11T22:28:08.919Z,24.10
2018-01-11T22:30:37.240Z,22.00
2018-01-11T22:33:05.563Z,22.90
2018-01-11T22:35:33.213Z,23.20
2018-01-11T22:38:00.808Z,22.80
2018-01-11T22:40:28.411Z,22.13
2018-01-11T22:42:56.030Z,21.87
2018-01-11T22:45:23.668Z,20.77
2018-01-11T22:47:51.308Z,20.63
2018-01-11T22:50:19.057Z,20.63
2018-01-11T22:52:46.714Z,20.20
2018-01-11T22:55:14.246Z,20.03
2018-01-11T22:57:41.813Z,20.23
2018-01-11T23:00:10.180Z,19.33
2018-01-11T23:02:37.754Z,20.43
2018-01-11T23:05:06.649Z,20.30
2018-01-11T23:07:35.295Z,20.17
2018-01-11T23:10:03.905Z,20.43
2018-01-11T23:12:32.233Z,21.00
2018-01-11T23:14:59.901Z,20.47
2018-01-11T23:17:27.897Z,21.40
2018-01-11T23:19:55.513Z,20.10
2018-01-11T23:22:23.122Z,18.93
2018-01-11T23:24:50.710Z,20.60
2018-01-11T23:27:19.183Z,18.67
2018-01-11T23:29:46.758Z,19.67
2018-01-11T23:32:14.947Z,20.43
2018-01-11T23:34:43.384Z,21.40
2018-01-11T23:37:10.952Z,19.57
2018-01-11T23:39:38.965Z,20.37
2018-01-11T23:42:06.570Z,20.97
2018-01-11T23:44:34.104Z,21.17
2018-01-11T23:47:01.680Z,19.80
2018-01-11T23:49:29.685Z,20.23
2018-01-11T23:51:57.305Z,20.27
2018-01-11T23:54:24.909Z,19.67
2018-01-11T23:56:52.484Z,21.07
2018-01-11T23:59:20.075Z,21.40
